createdAt,value
2023-04-20T00:00:37.444Z,94637.59
2023-04-20T00:03:04.115Z,94643.94
2023-04-20T00:05:32.266Z,94636.25
2023-04-20T00:07:59.201Z,94627.94
2023-04-20T00:10:26.111Z,94635.66
2023-04-20T00:12:52.759Z,94628.84
2023-04-20T00:15:19.396Z,94638.50
2023-04-20T00:17:46.662Z,94630.78
2023-04-20T00:20:13.430Z,94638.97
2023-04-20T00:22:40.101Z,94630.38
2023-04-20T00:25:07.542Z,94634.44
2023-04-20T00:27:34.326Z,94628.69
2023-04-20T00:30:00.946Z,94632.66
2023-04-20T00:32:28.513Z,94631.28
2023-04-20T00:34:55.388Z,94628.28
2023-04-20T00:37:22.059Z,94630.69
2023-04-20T00:39:48.687Z,94632.97
2023-04-20T00:42:15.305Z,94631.59
2023-04-20T00:44:41.922Z,94620.72
2023-04-20T00:47:08.558Z,94633.84
2023-04-20T00:49:35.272Z,94631.31
2023-04-20T00:52:01.968Z,94610.75
2023-04-20T00:54:30.072Z,94619.53
2023-04-20T00:56:58.182Z,94621.97
2023-04-20T00:59:24.986Z,94616.06
2023-04-20T01:01:51.654Z,94621.38
2023-04-20T01:04:19.296Z,94614.84
2023-04-20T01:06:46.137Z,94614.72
2023-04-20T01:09:13.030Z,94607.63
2023-04-20T01:11:39.923Z,94614.41
2023-04-20T01:14:06.809Z,94622.88
2023-04-20T01:16:37.329Z,94621.94
2023-04-20T01:19:04.276Z,94617.25
2023-04-20T01:21:31.260Z,94611.25
2023-04-20T01:23:58.280Z,94591.63
2023-04-20T01:26:25.837Z,94606.69
2023-04-20T01:28:52.550Z,94610.78
2023-04-20T01:31:20.151Z,94597.69
2023-04-20T01:33:47.031Z,94605.06
2023-04-20T01:36:14.478Z,94606.13
2023-04-20T01:38:41.336Z,94608.09
2023-04-20T01:41:09.889Z,94603.88
2023-04-20T01:43:37.418Z,94596.59
2023-04-20T01:46:04.991Z,94593.88
2023-04-20T01:48:31.676Z,94590.41
2023-04-20T01:50:58.590Z,94596.31
2023-04-20T01:53:28.075Z,94589.66
2023-04-20T01:55:55.286Z,94598.91
2023-04-20T01:58:21.964Z,94594.06
2023-04-20T02:00:48.643Z,94592.25
2023-04-20T02:03:15.493Z,94581.25
2023-04-20T02:05:42.531Z,94586.97
2023-04-20T02:08:09.195Z,94583.97
2023-04-20T02:10:36.028Z,94591.03
2023-04-20T02:13:02.724Z,94594.69
2023-04-20T02:15:29.366Z,94588.47
2023-04-20T02:17:56.031Z,94591.63
2023-04-20T02:20:22.781Z,94586.97
2023-04-20T02:22:49.378Z,94597.50
2023-04-20T02:25:16.074Z,94592.84
2023-04-20T02:27:42.784Z,94575.97
2023-04-20T02:30:10.687Z,94585.31
2023-04-20T02:32:37.640Z,94598.13
2023-04-20T02:35:04.753Z,94599.03
2023-04-20T02:37:32.214Z,94601.72
2023-04-20T02:39:59.103Z,94595.09
2023-04-20T02:42:26.160Z,94596.94
2023-04-20T02:44:53.007Z,94570.66
2023-04-20T02:47:22.810Z,94592.38
2023-04-20T02:49:49.484Z,94591.50
2023-04-20T02:52:16.368Z,94593.28
2023-04-20T02:54:43.031Z,94587.09
2023-04-20T02:57:11.666Z,94588.78
2023-04-20T02:59:38.412Z,94596.16
2023-04-20T03:02:05.548Z,94589.66
2023-04-20T03:04:32.425Z,94594.78
2023-04-20T03:07:00.426Z,94599.00
2023-04-20T03:09:27.222Z,94592.06
2023-04-20T03:11:54.424Z,94591.16
2023-04-20T03:14:21.023Z,94590.41
2023-04-20T03:16:47.666Z,94583.91
2023-04-20T03:19:21.319Z,94591.31
2023-04-20T03:21:47.984Z,94578.97
2023-04-20T03:24:14.652Z,94599.31
2023-04-20T03:26:41.438Z,94600.66
2023-04-20T03:29:08.390Z,94604.13
2023-04-20T03:31:35.205Z,94603.69
2023-04-20T03:34:01.816Z,94598.56
2023-04-20T03:36:28.496Z,94604.75
2023-04-20T03:38:55.082Z,94604.44
2023-04-20T03:41:22.313Z,94598.09
2023-04-20T03:43:48.955Z,94593.28
2023-04-20T03:46:16.014Z,94593.88
2023-04-20T03:48:42.802Z,94590.41
2023-04-20T03:51:09.403Z,94603.09
2023-04-20T03:53:37.536Z,94594.50
2023-04-20T03:56:06.182Z,94597.97
2023-04-20T03:58:32.722Z,94605.66
2023-04-20T04:01:09.647Z,94600.81
2023-04-20T04:03:36.785Z,94596.59
2023-04-20T04:06:04.254Z,94602.19
2023-04-20T04:08:32.345Z,94596.56
2023-04-20T04:11:00.418Z,94592.34
2023-04-20T04:13:27.023Z,94604.69
2023-04-20T04:15:53.864Z,94610.16
2023-04-20T04:18:22.183Z,94613.97
2023-04-20T04:20:48.871Z,94608.06
2023-04-20T04:23:15.570Z,94615.94
2023-04-20T04:25:42.497Z,94597.50
2023-04-20T04:28:09.329Z,94609.84
2023-04-20T04:30:35.947Z,94604.44
2023-04-20T04:33:04.973Z,94601.41
2023-04-20T04:35:33.356Z,94612.56
2023-04-20T04:38:00.829Z,94618.88
2023-04-20T04:40:27.517Z,94609.66
2023-04-20T04:42:55.609Z,94610.06
2023-04-20T04:45:25.331Z,94619.16
2023-04-20T04:47:54.792Z,94618.53
2023-04-20T04:50:22.129Z,94627.56
2023-04-20T04:52:48.865Z,94623.19
2023-04-20T04:55:16.519Z,94622.25
2023-04-20T04:57:43.378Z,94627.31
2023-04-20T05:00:12.061Z,94635.50
2023-04-20T05:02:39.043Z,94635.81
2023-04-20T05:05:08.201Z,94640.13
2023-04-20T05:07:36.372Z,94639.38
2023-04-20T05:10:03.114Z,94642.00
2023-04-20T05:12:29.748Z,94645.03
2023-04-20T05:14:56.489Z,94642.00
2023-04-20T05:17:23.253Z,94637.41
2023-04-20T05:19:49.930Z,94629.34
2023-04-20T05:22:17.219Z,94632.94
2023-04-20T05:24:43.823Z,94631.31
2023-04-20T05:27:11.479Z,94643.22
2023-04-20T05:29:38.667Z,94638.34
2023-04-20T05:32:05.645Z,94647.25
2023-04-20T05:34:32.291Z,94629.44
2023-04-20T05:36:59.286Z,94641.38
2023-04-20T05:39:26.353Z,94629.72
2023-04-20T05:41:53.091Z,94647.88
2023-04-20T05:44:19.685Z,94642.06
2023-04-20T05:46:47.145Z,94649.00
2023-04-20T05:49:13.923Z,94639.53
2023-04-20T05:51:40.553Z,94650.38
2023-04-20T05:54:07.241Z,94639.31
2023-04-20T05:56:33.983Z,94639.91
2023-04-20T05:59:00.800Z,94648.44
2023-04-20T06:01:27.668Z,94652.41
2023-04-20T06:03:54.663Z,94646.63
2023-04-20T06:06:21.573Z,94646.63
2023-04-20T06:08:48.465Z,94643.19
2023-04-20T06:11:15.094Z,94627.91
2023-04-20T06:13:41.735Z,94655.38
2023-04-20T06:16:10.933Z,94643.63
2023-04-20T06:18:37.773Z,94647.25
2023-04-20T06:21:04.603Z,94645.25
2023-04-20T06:23:31.385Z,94647.31
2023-04-20T06:25:57.977Z,94640.78
2023-04-20T06:28:24.574Z,94653.41
2023-04-20T06:30:51.308Z,94661.75
2023-04-20T06:33:18.129Z,94662.84
2023-04-20T06:35:44.763Z,94656.41
2023-04-20T06:38:11.437Z,94654.56
2023-04-20T06:40:38.248Z,94659.19
2023-04-20T06:43:05.234Z,94662.56
2023-04-20T06:45:33.616Z,94660.03
2023-04-20T06:48:01.006Z,94668.91
2023-04-20T06:50:27.774Z,94664.22
2023-04-20T06:52:54.447Z,94675.09
2023-04-20T06:55:21.394Z,94677.19
2023-04-20T06:57:48.072Z,94651.44
2023-04-20T07:00:15.669Z,94667.41
2023-04-20T07:02:47.695Z,94665.50
2023-04-20T07:05:15.809Z,94672.84
2023-04-20T07:07:43.191Z,94677.81
2023-04-20T07:10:11.690Z,94679.94
2023-04-20T07:12:40.934Z,94673.78
2023-04-20T07:15:09.944Z,94673.91
2023-04-20T07:17:36.604Z,94677.94
2023-04-20T07:20:08.574Z,94678.09
2023-04-20T07:22:36.994Z,94673.13
2023-04-20T07:25:06.078Z,94678.53
2023-04-20T07:27:37.571Z,94677.09
2023-04-20T07:30:06.337Z,94673.72
2023-04-20T07:32:37.071Z,94677.53
2023-04-20T07:35:04.421Z,94669.59
2023-04-20T07:37:34.314Z,94682.00
2023-04-20T07:40:02.292Z,94679.44
2023-04-20T07:42:29.802Z,94669.84
2023-04-20T07:44:56.460Z,94671.00
2023-04-20T07:47:23.188Z,94674.78
2023-04-20T07:49:49.895Z,94671.41
2023-04-20T07:52:17.472Z,94682.56
2023-04-20T07:54:47.775Z,94677.53
2023-04-20T07:57:15.319Z,94679.16
2023-04-20T07:59:42.145Z,94674.16
2023-04-20T08:02:09.325Z,94676.25
2023-04-20T08:04:38.192Z,94668.72
2023-04-20T08:07:05.199Z,94660.16
2023-04-20T08:09:32.059Z,94673.47
2023-04-20T08:11:58.858Z,94679.59
2023-04-20T08:14:25.570Z,94675.94
2023-04-20T08:16:52.370Z,94686.38
2023-04-20T08:19:19.062Z,94653.94
2023-04-20T08:21:45.726Z,94686.69
2023-04-20T08:24:13.366Z,94678.34
2023-04-20T08:26:40.744Z,94686.78
2023-04-20T08:29:07.417Z,94690.28
2023-04-20T08:31:34.256Z,94674.06
2023-04-20T08:34:01.479Z,94693.47
2023-04-20T08:36:28.358Z,94688.41
2023-04-20T08:39:07.603Z,94677.66
2023-04-20T08:41:34.390Z,94691.97
2023-04-20T08:44:01.044Z,94679.09
2023-04-20T08:46:28.861Z,94688.78
2023-04-20T08:48:56.545Z,94684.75
2023-04-20T08:51:24.192Z,94678.59
2023-04-20T08:53:51.541Z,94677.09
2023-04-20T08:56:18.192Z,94674.00
2023-04-20T08:58:44.847Z,94684.91
2023-04-20T09:01:14.092Z,94684.38
2023-04-20T09:03:44.501Z,94686.78
2023-04-20T09:06:18.386Z,94684.59
2023-04-20T09:08:46.660Z,94676.03
2023-04-20T09:11:23.277Z,94691.44
2023-04-20T09:13:59.804Z,94690.63
2023-04-20T09:16:26.524Z,94688.34
2023-04-20T09:18:54.466Z,94693.03
2023-04-20T09:21:22.160Z,94669.44
2023-04-20T09:24:03.066Z,94680.72
2023-04-20T09:26:34.525Z,94676.69
2023-04-20T09:29:05.309Z,94671.59
2023-04-20T09:31:31.980Z,94675.25
2023-04-20T09:34:03.541Z,94668.69
2023-04-20T09:36:45.402Z,94660.22
2023-04-20T09:39:17.456Z,94650.53
2023-04-20T09:41:45.069Z,94667.38
2023-04-20T09:44:12.749Z,94666.38
2023-04-20T09:46:41.522Z,94666.63
2023-04-20T09:49:09.799Z,94663.63
2023-04-20T09:51:42.075Z,94650.47
2023-04-20T09:54:09.316Z,94658.19
2023-04-20T09:56:36.148Z,94662.91
2023-04-20T09:59:04.231Z,94667.81
2023-04-20T10:01:34.560Z,94664.25
2023-04-20T10:04:04.005Z,94642.03
2023-04-20T10:06:33.461Z,94637.66
2023-04-20T10:09:05.460Z,94647.47
2023-04-20T10:11:52.360Z,94645.63
2023-04-20T10:14:25.559Z,94655.22
2023-04-20T10:17:04.331Z,94632.06
2023-04-20T10:19:42.351Z,94641.88
2023-04-20T10:22:12.950Z,94645.28
2023-04-20T10:24:40.494Z,94643.69
2023-04-20T10:27:17.787Z,94636.41
2023-04-20T10:29:44.426Z,94638.44
2023-04-20T10:32:28.411Z,94636.06
2023-04-20T10:35:03.222Z,94646.72
2023-04-20T10:37:30.160Z,94632.34
2023-04-20T10:39:57.032Z,94632.31
2023-04-20T10:42:23.673Z,94633.19
2023-04-20T10:44:51.845Z,94638.16
2023-04-20T10:47:26.981Z,94634.22
2023-04-20T10:49:53.736Z,94609.44
2023-04-20T10:52:38.801Z,94629.66
2023-04-20T10:55:09.856Z,94628.69
2023-04-20T10:57:36.445Z,94624.16
2023-04-20T11:00:16.665Z,94640.53
2023-04-20T11:02:51.572Z,94628.94
2023-04-20T11:05:19.762Z,94621.81
2023-04-20T11:08:01.107Z,94614.41
2023-04-20T11:10:39.808Z,94602.50
2023-04-20T11:13:07.444Z,94612.84
2023-04-20T11:15:35.377Z,94612.88
2023-04-20T11:18:09.953Z,94607.63
2023-04-20T11:20:36.714Z,94590.63
2023-04-20T11:23:05.184Z,94589.34
2023-04-20T11:25:32.252Z,94599.13
2023-04-20T11:28:09.276Z,94586.41
2023-04-20T11:30:42.773Z,94592.63
2023-04-20T11:33:10.528Z,94591.63
2023-04-20T11:35:42.291Z,94595.88
2023-04-20T11:38:09.373Z,94584.88
2023-04-20T11:40:36.148Z,94595.88
2023-04-20T11:43:04.767Z,94595.13
2023-04-20T11:45:35.738Z,94598.38
2023-04-20T11:48:03.530Z,94592.66
2023-04-20T11:50:30.449Z,94584.66
2023-04-20T11:52:57.164Z,94590.91
2023-04-20T11:55:24.010Z,94608.59
2023-04-20T11:57:50.836Z,94595.53
2023-04-20T12:00:18.322Z,94597.13
2023-04-20T12:02:45.090Z,94613.59
2023-04-20T12:05:12.144Z,94612.44
2023-04-20T12:07:39.090Z,94599.94
2023-04-20T12:10:07.825Z,94606.97
2023-04-20T12:12:34.538Z,94591.91
2023-04-20T12:15:01.827Z,94598.75
2023-04-20T12:17:28.528Z,94593.56
2023-04-20T12:19:55.390Z,94601.16
2023-04-20T12:22:22.041Z,94600.91
2023-04-20T12:24:51.629Z,94593.16
2023-04-20T12:27:18.336Z,94589.16
2023-04-20T12:29:45.083Z,94595.22
2023-04-20T12:32:11.886Z,94583.28
2023-04-20T12:34:38.515Z,94584.06
2023-04-20T12:37:05.182Z,94587.41
2023-04-20T12:39:31.833Z,94572.19
2023-04-20T12:41:58.563Z,94577.41
2023-04-20T12:44:25.201Z,94571.94
2023-04-20T12:46:52.016Z,94558.22
2023-04-20T12:49:18.868Z,94566.19
2023-04-20T12:51:45.667Z,94562.44
2023-04-20T12:54:12.319Z,94566.38
2023-04-20T12:56:38.942Z,94566.09
2023-04-20T12:59:05.736Z,94561.09
2023-04-20T13:01:32.589Z,94559.69
2023-04-20T13:03:59.481Z,94558.09
2023-04-20T13:06:26.760Z,94553.97
2023-04-20T13:08:53.508Z,94568.78
2023-04-20T13:11:20.147Z,94570.59
2023-04-20T13:13:47.230Z,94560.19
2023-04-20T13:16:14.342Z,94573.44
2023-04-20T13:18:41.088Z,94561.84
2023-04-20T13:21:08.552Z,94562.47
2023-04-20T13:23:35.545Z,94579.88
2023-04-20T13:26:02.313Z,94569.66
2023-04-20T13:28:30.115Z,94574.28
2023-04-20T13:30:57.774Z,94569.56
2023-04-20T13:33:24.841Z,94562.06
2023-04-20T13:35:52.205Z,94559.81
2023-04-20T13:38:19.045Z,94559.84
2023-04-20T13:40:46.893Z,94557.66
2023-04-20T13:43:13.816Z,94551.69
2023-04-20T13:45:40.533Z,94560.91
2023-04-20T13:48:07.500Z,94560.56
2023-04-20T13:50:34.245Z,94551.91
2023-04-20T13:53:03.240Z,94558.38
2023-04-20T13:55:31.958Z,94550.81
2023-04-20T13:57:58.827Z,94567.28
2023-04-20T14:00:26.363Z,94558.06
2023-04-20T14:02:53.423Z,94570.53
2023-04-20T14:05:20.683Z,94547.38
2023-04-20T14:07:47.529Z,94551.59
2023-04-20T14:10:14.328Z,94558.06
2023-04-20T14:12:40.996Z,94566.47
2023-04-20T14:15:07.981Z,94564.75
2023-04-20T14:17:34.586Z,94579.44
2023-04-20T14:20:01.738Z,94579.63
2023-04-20T14:22:34.268Z,94582.94
2023-04-20T14:25:00.934Z,94580.69
2023-04-20T14:27:27.641Z,94588.84
2023-04-20T14:29:54.320Z,94585.75
2023-04-20T14:32:21.175Z,94589.28
2023-04-20T14:34:47.806Z,94589.78
2023-04-20T14:37:14.603Z,94585.00
2023-04-20T14:39:41.439Z,94586.53
2023-04-20T14:42:08.394Z,94567.72
2023-04-20T14:44:35.362Z,94581.59
2023-04-20T14:47:03.141Z,94561.38
2023-04-20T14:49:30.216Z,94574.75
2023-04-20T14:51:57.107Z,94584.41
2023-04-20T14:54:24.356Z,94573.53
2023-04-20T14:56:51.027Z,94590.97
2023-04-20T14:59:17.771Z,94583.00
2023-04-20T15:01:55.312Z,94573.94
2023-04-20T15:04:29.252Z,94574.84
2023-04-20T15:06:56.163Z,94592.31
2023-04-20T15:09:22.778Z,94579.53
2023-04-20T15:11:49.430Z,94571.63
2023-04-20T15:14:16.286Z,94577.88
2023-04-20T15:16:43.507Z,94587.47
2023-04-20T15:19:10.353Z,94579.75
2023-04-20T15:21:37.048Z,94584.78
2023-04-20T15:24:03.784Z,94583.22
2023-04-20T15:26:30.545Z,94586.09
2023-04-20T15:28:57.685Z,94588.63
2023-04-20T15:31:24.415Z,94583.44
2023-04-20T15:33:51.142Z,94577.47
2023-04-20T15:36:18.881Z,94574.75
2023-04-20T15:38:45.746Z,94581.34
2023-04-20T15:41:12.424Z,94577.28
2023-04-20T15:43:39.498Z,94587.50
2023-04-20T15:46:06.470Z,94578.38
2023-04-20T15:48:33.214Z,94583.59
2023-04-20T15:50:59.867Z,94558.59
2023-04-20T15:53:27.036Z,94586.47
2023-04-20T15:55:53.667Z,94571.81
2023-04-20T15:58:20.367Z,94582.84
2023-04-20T16:00:47.036Z,94575.88
2023-04-20T16:03:13.889Z,94559.13
2023-04-20T16:05:40.974Z,94584.41
2023-04-20T16:08:07.748Z,94587.63
2023-04-20T16:10:34.463Z,94589.81
2023-04-20T16:13:01.175Z,94579.13
2023-04-20T16:15:27.836Z,94580.03
2023-04-20T16:17:54.835Z,94585.25
2023-04-20T16:20:21.626Z,94578.66
2023-04-20T16:22:48.293Z,94580.16
2023-04-20T16:25:23.222Z,94589.56
2023-04-20T16:27:51.709Z,94589.72
2023-04-20T16:30:18.670Z,94582.69
2023-04-20T16:32:45.421Z,94575.97
2023-04-20T16:35:12.030Z,94575.50
2023-04-20T16:37:38.683Z,94580.78
2023-04-20T16:40:06.322Z,94574.44
2023-04-20T16:42:34.421Z,94569.72
2023-04-20T16:45:01.735Z,94591.38
2023-04-20T16:47:28.504Z,94559.44
2023-04-20T16:49:55.439Z,94554.03
2023-04-20T16:52:22.050Z,94584.50
2023-04-20T16:54:48.644Z,94582.94
2023-04-20T16:57:15.515Z,94568.75
2023-04-20T16:59:44.635Z,94576.25
2023-04-20T17:02:12.379Z,94570.72
2023-04-20T17:04:39.091Z,94576.50
2023-04-20T17:07:08.886Z,94556.97
2023-04-20T17:09:35.849Z,94530.63
2023-04-20T17:12:02.637Z,94575.75
2023-04-20T17:14:32.240Z,94544.53
2023-04-20T17:16:58.926Z,94576.41
2023-04-20T17:19:25.742Z,94577.25
2023-04-20T17:21:52.734Z,94573.94
2023-04-20T17:24:19.731Z,94572.59
2023-04-20T17:26:46.590Z,94579.13
2023-04-20T17:29:13.903Z,94575.75
2023-04-20T17:31:40.584Z,94560.47
2023-04-20T17:34:07.306Z,94581.78
2023-04-20T17:36:34.363Z,94557.34
2023-04-20T17:39:01.412Z,94567.28
2023-04-20T17:41:28.504Z,94584.09
2023-04-20T17:43:58.139Z,94573.66
2023-04-20T17:46:24.816Z,94557.00
2023-04-20T17:48:51.508Z,94577.91
2023-04-20T17:51:18.356Z,94556.75
2023-04-20T17:53:45.005Z,94582.84
2023-04-20T17:56:12.100Z,94573.31
2023-04-20T17:58:38.751Z,94581.13
2023-04-20T18:01:05.640Z,94579.84
2023-04-20T18:03:32.756Z,94586.25
2023-04-20T18:05:59.710Z,94591.63
2023-04-20T18:08:26.573Z,94596.88
2023-04-20T18:10:53.188Z,94598.06
2023-04-20T18:13:19.880Z,94589.56
2023-04-20T18:15:46.652Z,94589.31
2023-04-20T18:18:13.464Z,94595.25
2023-04-20T18:20:40.733Z,94605.66
2023-04-20T18:23:07.526Z,94597.25
2023-04-20T18:25:34.253Z,94594.88
2023-04-20T18:28:00.889Z,94605.81
2023-04-20T18:30:27.760Z,94610.09
2023-04-20T18:32:54.602Z,94620.97
2023-04-20T18:35:21.338Z,94589.00
2023-04-20T18:37:48.112Z,94613.72
2023-04-20T18:40:16.220Z,94609.69
2023-04-20T18:42:43.306Z,94616.91
2023-04-20T18:45:11.369Z,94615.69
2023-04-20T18:47:37.967Z,94610.38
2023-04-20T18:50:05.472Z,94616.38
2023-04-20T18:52:33.328Z,94620.63
2023-04-20T18:55:00.181Z,94624.59
2023-04-20T18:57:28.798Z,94615.75
2023-04-20T18:59:56.484Z,94615.94
2023-04-20T19:02:23.375Z,94620.31
2023-04-20T19:04:51.131Z,94625.78
2023-04-20T19:07:18.398Z,94629.38
2023-04-20T19:09:45.383Z,94638.59
2023-04-20T19:12:12.237Z,94635.59
2023-04-20T19:14:38.994Z,94642.00
2023-04-20T19:17:07.327Z,94647.56
2023-04-20T19:19:34.544Z,94630.66
2023-04-20T19:22:02.198Z,94637.13
2023-04-20T19:24:29.442Z,94631.53
2023-04-20T19:26:56.227Z,94635.28
2023-04-20T19:29:23.034Z,94628.53
2023-04-20T19:31:49.948Z,94634.00
2023-04-20T19:34:17.256Z,94632.88
2023-04-20T19:36:44.480Z,94648.59
2023-04-20T19:39:11.607Z,94639.00
2023-04-20T19:41:38.370Z,94637.31
2023-04-20T19:44:06.626Z,94646.16
2023-04-20T19:46:33.944Z,94652.44
2023-04-20T19:49:01.307Z,94634.78
2023-04-20T19:51:28.679Z,94643.91
2023-04-20T19:53:58.510Z,94638.16
2023-04-20T19:56:25.828Z,94630.47
2023-04-20T19:58:53.755Z,94635.59
2023-04-20T20:01:20.713Z,94629.13
2023-04-20T20:03:47.879Z,94641.53
2023-04-20T20:06:14.746Z,94642.38
2023-04-20T20:08:41.697Z,94629.44
2023-04-20T20:11:11.735Z,94641.84
2023-04-20T20:13:38.730Z,94638.25
2023-04-20T20:16:05.500Z,94645.50
2023-04-20T20:18:32.402Z,94635.72
2023-04-20T20:20:59.038Z,94644.84
2023-04-20T20:23:25.782Z,94644.59
2023-04-20T20:25:52.580Z,94642.97
2023-04-20T20:28:19.376Z,94645.97
2023-04-20T20:30:46.216Z,94648.81
2023-04-20T20:33:13.152Z,94624.72
2023-04-20T20:35:40.131Z,94643.84
2023-04-20T20:38:08.052Z,94650.41
2023-04-20T20:40:35.524Z,94652.00
2023-04-20T20:43:02.644Z,94654.72
2023-04-20T20:45:30.455Z,94642.16
2023-04-20T20:47:58.204Z,94650.13
2023-04-20T20:50:27.833Z,94641.94
2023-04-20T20:52:54.661Z,94650.13
2023-04-20T20:55:21.348Z,94649.19
2023-04-20T20:57:47.912Z,94651.72
2023-04-20T21:00:14.802Z,94645.97
2023-04-20T21:02:42.014Z,94641.84
2023-04-20T21:05:09.101Z,94636.13
2023-04-20T21:07:36.065Z,94644.66
2023-04-20T21:10:03.488Z,94642.13
2023-04-20T21:12:34.099Z,94636.59
2023-04-20T21:15:01.092Z,94642.78
2023-04-20T21:17:27.824Z,94642.88
2023-04-20T21:19:58.100Z,94650.41
2023-04-20T21:22:24.811Z,94644.47
2023-04-20T21:24:51.449Z,94653.22
2023-04-20T21:27:18.100Z,94646.75
2023-04-20T21:29:46.267Z,94630.69
2023-04-20T21:32:12.989Z,94644.84
2023-04-20T21:34:39.818Z,94639.22
2023-04-20T21:37:06.374Z,94634.72
2023-04-20T21:39:33.226Z,94639.69
2023-04-20T21:42:00.203Z,94638.72
2023-04-20T21:44:27.300Z,94640.25
2023-04-20T21:46:54.110Z,94642.22
2023-04-20T21:49:21.122Z,94648.88
2023-04-20T21:51:47.832Z,94646.97
2023-04-20T21:54:14.728Z,94638.44
2023-04-20T21:56:44.444Z,94651.44
2023-04-20T21:59:11.044Z,94649.19
2023-04-20T22:01:37.895Z,94648.69
2023-04-20T22:04:04.874Z,94638.91
2023-04-20T22:06:32.709Z,94636.94
2023-04-20T22:08:59.333Z,94650.84
2023-04-20T22:11:25.969Z,94638.16
2023-04-20T22:13:52.686Z,94637.28
2023-04-20T22:16:21.102Z,94629.56
2023-04-20T22:18:48.957Z,94647.81
2023-04-20T22:21:15.771Z,94635.78
2023-04-20T22:23:42.366Z,94649.03
2023-04-20T22:26:08.902Z,94649.03
2023-04-20T22:28:35.477Z,94646.31
2023-04-20T22:31:02.206Z,94656.28
2023-04-20T22:33:28.881Z,94645.97
2023-04-20T22:35:55.596Z,94646.31
2023-04-20T22:38:22.303Z,94638.03
2023-04-20T22:40:48.958Z,94648.00
2023-04-20T22:43:15.927Z,94641.69
2023-04-20T22:45:42.501Z,94644.00
2023-04-20T22:48:09.414Z,94636.44
2023-04-20T22:50:36.219Z,94635.84
2023-04-20T22:53:03.696Z,94642.69
2023-04-20T22:55:30.518Z,94639.97
2023-04-20T22:57:57.119Z,94651.50
2023-04-20T23:00:23.684Z,94646.69
2023-04-20T23:02:51.460Z,94643.50
2023-04-20T23:05:20.478Z,94641.25
2023-04-20T23:07:47.444Z,94635.56
2023-04-20T23:10:17.128Z,94636.47
2023-04-20T23:12:44.669Z,94632.03
2023-04-20T23:15:12.136Z,94625.59
2023-04-20T23:17:39.166Z,94630.72
2023-04-20T23:20:13.810Z,94632.59
2023-04-20T23:22:40.880Z,94621.09
2023-04-20T23:25:09.892Z,94622.78
2023-04-20T23:27:36.956Z,94616.06
2023-04-20T23:30:03.902Z,94616.84
2023-04-20T23:32:30.712Z,94605.66
2023-04-20T23:34:57.474Z,94607.22
2023-04-20T23:37:24.441Z,94615.19
2023-04-20T23:39:51.060Z,94614.72
2023-04-20T23:42:17.667Z,94597.25
2023-04-20T23:44:44.290Z,94610.84
2023-04-20T23:47:10.931Z,94606.16
2023-04-20T23:49:37.562Z,94605.53
2023-04-20T23:52:04.360Z,94596.63
2023-04-20T23:54:33.251Z,94598.31
2023-04-20T23:57:00.117Z,94599.47
2023-04-20T23:59:26.884Z,94585.28
